Danbury, CT

4:25 PM EST on December 10, 2016 (GMT -0500)
Wooster Village | | Change Station

Elev 466 ft 41.38 °N, 73.46 °W | Updated 39 minutes ago

Mostly Cloudy
Mostly Cloudy
30.4 °F
Feels Like 27 °F
N
3.7
Wind Variable Wind from SSW

Today
High -- | Low -- °F
--% Chance of Precip.
Yesterday
High -- | Low -- °F
Precip. -- in
Pressure 30.35 in
Visibility 10.0 miles
Clouds Mostly Cloudy 4200 ft
Windchill 27 °F
Dew Point 15 °F
Humidity 53%
Rainfall 0.71 in
Snow Depth Not available.
7:09 AM 4:24 PM
Waxing Gibbous, 86% visible
METAR KDXR 102053Z AUTO 27006KT 10SM BKN042 M01/M10 A3034 RMK AO2 SLP278 T10111100 53006
Pressure 30.35 in
Visibility 10.0 miles
Clouds Mostly Cloudy 4200 ft
Windchill 27 °F
Dew Point 15 °F
Humidity 53%
Rainfall 0.71 in
Snow Depth Not available.
7:09 AM 4:24 PM
Waxing Gibbous, 86% visible
METAR KDXR 102053Z AUTO 27006KT 10SM BKN042 M01/M10 A3034 RMK AO2 SLP278 T10111100 53006

10-Day Weather Forecast

Almanac

Astronomy

Dec. 10, 2016 Rise Set
Actual Time
Civil Twilight
Nautical Twilight
Astronomical Twilight
Moon
Length of Visible Light
Length of Day
Tomorrow will be .
, % of the Moon is Illuminated

Today's Extremes

State Highs State Lows

Community

WunderPhotos

Upload Photos

1,956,664 photos uploaded!

WunderBlog® & News

Nearby

Air Quality

  Air Quality AQ Index Pollutant
Not available.

Snow Depth

Station Depth Elevation

Earthquake Activity

City Distance Mag. Time & Date
Minimum magnitude displayed is 2.5.

Coastal Water Temperatures

Place Temperature

Stations

Nearby Weather Stations

Station Location Temp. Windchill Dew Point Humidity Wind Precip. Elev Updated Type
                   

Watches & Warnings

There are currently no watches in effect.